createdAt,value
2023-02-26T00:01:31.841Z,70.90
2023-02-26T00:04:01.489Z,70.80
2023-02-26T00:06:31.854Z,70.70
2023-02-26T00:08:59.604Z,70.80
2023-02-26T00:11:26.936Z,70.80
2023-02-26T00:13:54.387Z,70.70
2023-02-26T00:16:21.631Z,70.60
2023-02-26T00:18:49.246Z,70.40
2023-02-26T00:21:18.600Z,70.40
2023-02-26T00:23:45.985Z,70.60
2023-02-26T00:26:13.268Z,70.40
2023-02-26T00:28:40.891Z,70.60
2023-02-26T00:31:09.022Z,70.60
2023-02-26T00:33:36.734Z,70.60
2023-02-26T00:36:19.179Z,70.50
2023-02-26T00:38:54.206Z,70.60
2023-02-26T00:41:21.658Z,70.50
2023-02-26T00:43:49.013Z,70.20
2023-02-26T00:46:46.922Z,70.10
2023-02-26T00:49:32.490Z,70.20
2023-02-26T00:52:03.483Z,70.10
2023-02-26T00:54:31.445Z,70.10
2023-02-26T00:56:59.587Z,70.30
2023-02-26T00:59:26.783Z,70.40
2023-02-26T01:01:54.126Z,70.60
2023-02-26T01:04:22.898Z,70.70
2023-02-26T01:06:53.693Z,70.90
2023-02-26T01:09:26.861Z,70.60
2023-02-26T01:11:55.690Z,70.80
2023-02-26T01:14:23.650Z,71.30
2023-02-26T01:16:57.105Z,71.40
2023-02-26T01:19:47.468Z,71.40
2023-02-26T01:22:31.547Z,71.50
2023-02-26T01:25:24.958Z,71.80
2023-02-26T01:27:52.935Z,71.80
2023-02-26T01:30:20.845Z,72.20
2023-02-26T01:33:35.645Z,72.10
2023-02-26T01:36:28.278Z,72.30
2023-02-26T01:39:19.645Z,72.00
2023-02-26T01:41:54.393Z,72.10
2023-02-26T01:44:40.383Z,71.90
2023-02-26T01:47:23.607Z,71.90
2023-02-26T01:49:51.010Z,72.00
2023-02-26T01:52:49.222Z,71.60
2023-02-26T01:55:26.849Z,71.10
2023-02-26T01:57:56.165Z,70.70
2023-02-26T02:00:23.362Z,71.00
2023-02-26T02:02:51.071Z,70.90
2023-02-26T02:05:33.014Z,70.70
2023-02-26T02:08:00.484Z,70.60
2023-02-26T02:10:28.221Z,70.60
2023-02-26T02:13:10.863Z,70.70
2023-02-26T02:15:47.175Z,70.80
2023-02-26T02:18:44.331Z,70.70
2023-02-26T02:21:42.285Z,70.60
2023-02-26T02:24:12.066Z,70.80
2023-02-26T02:26:45.979Z,70.80
2023-02-26T02:29:37.780Z,70.60
2023-02-26T02:32:21.460Z,70.80
2023-02-26T02:34:54.592Z,70.40
2023-02-26T02:37:30.461Z,70.50
2023-02-26T02:40:13.120Z,70.60
2023-02-26T02:42:52.643Z,70.50
2023-02-26T02:45:25.633Z,70.40
2023-02-26T02:48:10.004Z,70.30
2023-02-26T02:50:43.914Z,70.10
2023-02-26T02:53:25.864Z,70.30
2023-02-26T02:56:17.723Z,70.30
2023-02-26T02:58:51.316Z,70.10
2023-02-26T03:01:21.022Z,70.20
2023-02-26T03:04:11.434Z,70.10
2023-02-26T03:06:39.107Z,70.30
2023-02-26T03:09:08.284Z,70.30
2023-02-26T03:11:36.439Z,70.30
2023-02-26T03:14:04.684Z,70.20
2023-02-26T03:16:37.918Z,70.10
2023-02-26T03:19:29.893Z,70.10
2023-02-26T03:22:12.204Z,70.10
2023-02-26T03:25:11.560Z,70.10
2023-02-26T03:27:46.071Z,70.20
2023-02-26T03:30:30.407Z,70.10
2023-02-26T03:33:09.514Z,70.10
2023-02-26T03:35:47.534Z,70.10
2023-02-26T03:38:26.169Z,70.10
2023-02-26T03:41:06.342Z,70.10
2023-02-26T03:43:43.112Z,69.90
2023-02-26T03:46:16.796Z,69.90
2023-02-26T03:48:46.594Z,69.90
2023-02-26T03:51:14.854Z,69.80
2023-02-26T03:53:56.569Z,68.40
2023-02-26T03:56:33.726Z,69.10
2023-02-26T03:59:01.058Z,69.30
2023-02-26T04:01:35.769Z,68.70
2023-02-26T04:04:17.695Z,68.10
2023-02-26T04:06:45.680Z,68.30
2023-02-26T04:09:14.207Z,68.50
2023-02-26T04:11:43.968Z,68.80
2023-02-26T04:14:11.141Z,68.70
2023-02-26T04:16:38.339Z,68.60
2023-02-26T04:19:05.403Z,68.60
2023-02-26T04:21:32.463Z,68.40
2023-02-26T04:23:59.560Z,68.30
2023-02-26T04:26:26.942Z,68.30
2023-02-26T04:28:54.177Z,68.30
2023-02-26T04:31:21.484Z,67.80
2023-02-26T04:33:48.620Z,67.80
2023-02-26T04:36:15.775Z,67.80
2023-02-26T04:38:42.863Z,68.10
2023-02-26T04:41:10.054Z,68.10
2023-02-26T04:43:37.824Z,68.00
2023-02-26T04:46:05.127Z,67.90
2023-02-26T04:48:32.249Z,68.10
2023-02-26T04:50:59.487Z,68.00
2023-02-26T04:53:26.705Z,68.10
2023-02-26T04:55:53.830Z,68.20
2023-02-26T04:58:21.139Z,68.10
2023-02-26T05:00:49.904Z,68.30
2023-02-26T05:03:17.315Z,68.30
2023-02-26T05:05:45.081Z,68.30
2023-02-26T05:08:12.256Z,68.30
2023-02-26T05:10:39.470Z,68.30
2023-02-26T05:13:06.667Z,68.30
2023-02-26T05:15:34.429Z,68.30
2023-02-26T05:18:01.515Z,68.80
2023-02-26T05:20:28.659Z,68.90
2023-02-26T05:22:55.882Z,69.20
2023-02-26T05:25:23.225Z,69.40
2023-02-26T05:27:50.331Z,69.80
2023-02-26T05:30:17.828Z,69.80
2023-02-26T05:32:45.703Z,70.10
2023-02-26T05:35:13.292Z,70.00
2023-02-26T05:37:40.754Z,70.40
2023-02-26T05:40:12.122Z,70.50
2023-02-26T05:42:39.879Z,70.80
2023-02-26T05:45:07.962Z,70.60
2023-02-26T05:47:35.846Z,70.70
2023-02-26T05:50:04.421Z,71.30
2023-02-26T05:52:31.670Z,71.50
2023-02-26T05:54:59.285Z,71.00
2023-02-26T05:57:26.574Z,71.50
2023-02-26T05:59:53.734Z,72.10
2023-02-26T06:02:20.944Z,72.40
2023-02-26T06:04:48.100Z,72.70
2023-02-26T06:07:15.302Z,72.70
2023-02-26T06:09:42.413Z,73.80
2023-02-26T06:12:09.923Z,72.90
2023-02-26T06:14:37.171Z,73.40
2023-02-26T06:17:05.584Z,73.90
2023-02-26T06:19:32.825Z,73.60
2023-02-26T06:22:00.035Z,74.40
2023-02-26T06:24:27.335Z,74.60
2023-02-26T06:26:54.454Z,74.50
2023-02-26T06:29:21.652Z,74.00
2023-02-26T06:31:48.836Z,74.10
2023-02-26T06:34:16.058Z,73.90
2023-02-26T06:36:43.223Z,74.00
2023-02-26T06:39:10.367Z,74.10
2023-02-26T06:41:37.483Z,74.50
2023-02-26T06:44:05.444Z,74.70
2023-02-26T06:46:32.850Z,74.60
2023-02-26T06:49:00.547Z,74.40
2023-02-26T06:51:27.754Z,74.10
2023-02-26T06:53:55.035Z,73.50
2023-02-26T06:56:24.170Z,73.60
2023-02-26T06:58:51.928Z,73.20
2023-02-26T07:01:19.276Z,72.90
2023-02-26T07:03:46.462Z,72.90
2023-02-26T07:06:26.899Z,72.00
2023-02-26T07:08:55.316Z,72.20
2023-02-26T07:11:22.988Z,71.40
2023-02-26T07:13:51.533Z,71.10
2023-02-26T07:16:18.808Z,71.80
2023-02-26T07:18:46.013Z,72.40
2023-02-26T07:21:13.195Z,69.50
2023-02-26T07:23:40.300Z,70.20
2023-02-26T07:26:09.110Z,69.90
2023-02-26T07:28:36.511Z,69.00
2023-02-26T07:31:03.855Z,69.50
2023-02-26T07:33:31.934Z,69.60
2023-02-26T07:35:59.068Z,69.70
2023-02-26T07:38:26.358Z,70.00
2023-02-26T07:40:56.696Z,69.60
2023-02-26T07:43:26.652Z,69.40
2023-02-26T07:45:54.323Z,68.70
2023-02-26T07:48:21.763Z,69.40
2023-02-26T07:50:52.307Z,68.70
2023-02-26T07:53:20.206Z,68.20
2023-02-26T07:55:47.499Z,68.40
2023-02-26T07:58:14.765Z,68.50
2023-02-26T08:00:41.927Z,67.00
2023-02-26T08:03:09.080Z,66.40
2023-02-26T08:05:36.480Z,66.60
2023-02-26T08:08:03.670Z,66.50
2023-02-26T08:10:31.024Z,66.60
2023-02-26T08:12:58.256Z,66.00
2023-02-26T08:15:26.260Z,65.60
2023-02-26T08:17:53.839Z,66.20
2023-02-26T08:20:21.004Z,64.10
2023-02-26T08:22:48.132Z,64.70
2023-02-26T08:25:15.277Z,64.70
2023-02-26T08:27:42.845Z,64.50
2023-02-26T08:30:11.896Z,63.70
2023-02-26T08:32:42.650Z,63.20
2023-02-26T08:35:12.077Z,64.30
2023-02-26T08:37:39.258Z,64.20
2023-02-26T08:40:08.593Z,62.20
2023-02-26T08:42:36.176Z,63.00
2023-02-26T08:45:04.081Z,63.70
2023-02-26T08:47:32.063Z,63.00
2023-02-26T08:50:03.348Z,62.70
2023-02-26T08:52:30.755Z,61.60
2023-02-26T08:54:57.881Z,62.00
2023-02-26T08:57:25.118Z,60.20
2023-02-26T08:59:54.036Z,59.40
2023-02-26T09:02:21.173Z,58.30
2023-02-26T09:04:48.615Z,57.20
2023-02-26T09:07:18.933Z,56.80
2023-02-26T09:09:46.035Z,56.70
2023-02-26T09:12:13.135Z,56.80
2023-02-26T09:14:40.309Z,56.90
2023-02-26T09:17:10.398Z,57.40
2023-02-26T09:19:37.590Z,57.50
2023-02-26T09:22:07.617Z,57.60
2023-02-26T09:24:36.285Z,57.50
2023-02-26T09:27:22.779Z,56.30
2023-02-26T09:29:53.624Z,55.90
2023-02-26T09:32:33.595Z,54.90
2023-02-26T09:35:11.091Z,54.40
2023-02-26T09:37:40.875Z,54.80
2023-02-26T09:40:19.975Z,54.50
2023-02-26T09:43:15.603Z,54.80
2023-02-26T09:45:46.239Z,55.20
2023-02-26T09:48:18.593Z,54.60
2023-02-26T09:50:52.625Z,54.00
2023-02-26T09:53:22.568Z,54.30
2023-02-26T09:55:59.728Z,54.60
2023-02-26T09:58:31.499Z,54.00
2023-02-26T10:01:11.540Z,53.80
2023-02-26T10:04:04.721Z,53.50
2023-02-26T10:07:03.827Z,53.30
2023-02-26T10:09:47.633Z,52.70
2023-02-26T10:12:19.163Z,52.90
2023-02-26T10:15:04.365Z,51.90
2023-02-26T10:17:59.190Z,52.50
2023-02-26T10:21:15.087Z,52.80
2023-02-26T10:23:59.327Z,51.60
2023-02-26T10:26:43.773Z,51.20
2023-02-26T10:29:29.093Z,50.00
2023-02-26T10:32:19.048Z,51.10
2023-02-26T10:35:09.820Z,49.80
2023-02-26T10:38:02.896Z,50.10
2023-02-26T10:40:50.979Z,47.90
2023-02-26T10:43:36.226Z,47.70
2023-02-26T10:46:23.192Z,47.80
2023-02-26T10:49:09.059Z,48.30
2023-02-26T10:51:38.864Z,48.00
2023-02-26T10:54:39.046Z,47.60
2023-02-26T10:57:17.079Z,47.40
2023-02-26T10:59:44.582Z,46.30
2023-02-26T11:02:39.905Z,44.00
2023-02-26T11:05:15.578Z,43.40
2023-02-26T11:07:43.728Z,43.10
2023-02-26T11:10:22.055Z,43.40
2023-02-26T11:12:49.271Z,44.60
2023-02-26T11:15:20.171Z,44.20
2023-02-26T11:17:58.194Z,44.20
2023-02-26T11:20:34.569Z,44.90
2023-02-26T11:23:04.928Z,45.50
2023-02-26T11:25:35.936Z,45.50
2023-02-26T11:28:07.504Z,42.40
2023-02-26T11:30:39.122Z,43.40
2023-02-26T11:33:37.630Z,42.60
2023-02-26T11:36:11.144Z,43.40
2023-02-26T11:38:39.773Z,43.30
2023-02-26T11:41:07.945Z,43.10
2023-02-26T11:43:44.812Z,42.70
2023-02-26T11:46:13.812Z,43.00
2023-02-26T11:48:42.929Z,41.80
2023-02-26T11:51:16.430Z,41.70
2023-02-26T11:53:52.559Z,42.70
2023-02-26T11:56:35.657Z,43.10
2023-02-26T11:59:08.741Z,43.90
2023-02-26T12:01:38.512Z,43.10
2023-02-26T12:04:10.943Z,42.90
2023-02-26T12:06:38.666Z,42.10
2023-02-26T12:09:12.870Z,42.50
2023-02-26T12:11:55.477Z,42.80
2023-02-26T12:14:53.750Z,43.20
2023-02-26T12:17:42.360Z,43.80
2023-02-26T12:20:19.951Z,44.20
2023-02-26T12:22:55.211Z,43.30
2023-02-26T12:25:37.843Z,42.70
2023-02-26T12:28:26.734Z,42.80
2023-02-26T12:31:15.962Z,43.80
2023-02-26T12:34:30.504Z,44.60
2023-02-26T12:37:35.123Z,44.80
2023-02-26T12:40:17.110Z,45.40
2023-02-26T12:43:08.614Z,45.90
2023-02-26T12:46:02.826Z,46.40
2023-02-26T12:48:51.615Z,46.80
2023-02-26T12:51:28.025Z,47.10
2023-02-26T12:54:07.543Z,47.00
2023-02-26T12:56:59.161Z,47.40
2023-02-26T12:59:55.708Z,46.40
2023-02-26T13:02:35.037Z,46.40
2023-02-26T13:05:35.460Z,46.50
2023-02-26T13:08:35.870Z,44.80
2023-02-26T13:11:21.297Z,44.30
2023-02-26T13:14:08.798Z,44.60
2023-02-26T13:16:50.382Z,44.70
2023-02-26T13:19:26.039Z,45.00
2023-02-26T13:22:11.733Z,45.10
2023-02-26T13:24:45.033Z,45.00
2023-02-26T13:27:15.804Z,45.70
2023-02-26T13:29:48.498Z,46.50
2023-02-26T13:32:21.461Z,46.70
2023-02-26T13:35:01.776Z,46.80
2023-02-26T13:37:38.287Z,47.10
2023-02-26T13:40:44.623Z,48.00
2023-02-26T13:43:55.441Z,47.90
2023-02-26T13:46:47.487Z,48.90
2023-02-26T13:49:31.528Z,49.60
2023-02-26T13:51:58.821Z,50.20
2023-02-26T13:54:44.618Z,50.20
2023-02-26T13:57:42.888Z,50.60
2023-02-26T14:00:27.158Z,50.50
2023-02-26T14:02:57.214Z,50.60
2023-02-26T14:05:46.443Z,50.30
2023-02-26T14:08:32.486Z,50.30
2023-02-26T14:11:04.601Z,50.50
2023-02-26T14:14:10.555Z,50.70
2023-02-26T14:16:40.938Z,50.50
2023-02-26T14:19:14.003Z,50.20
2023-02-26T14:22:14.364Z,50.20
2023-02-26T14:24:55.704Z,49.90
2023-02-26T14:27:32.300Z,49.90
2023-02-26T14:30:09.850Z,50.10
2023-02-26T14:32:50.274Z,50.60
2023-02-26T14:35:25.366Z,50.70
2023-02-26T14:38:08.446Z,50.70
2023-02-26T14:40:43.476Z,50.70
2023-02-26T14:43:19.957Z,50.70
2023-02-26T14:45:47.866Z,51.00
2023-02-26T14:48:17.695Z,50.70
2023-02-26T14:51:05.040Z,50.90
2023-02-26T14:54:09.514Z,50.40
2023-02-26T14:56:42.270Z,50.60
2023-02-26T14:59:27.908Z,50.00
2023-02-26T15:02:01.329Z,49.90
2023-02-26T15:04:37.472Z,49.90
2023-02-26T15:07:10.379Z,49.50
2023-02-26T15:09:55.650Z,48.40
2023-02-26T15:12:47.473Z,48.00
2023-02-26T15:15:45.703Z,46.60
2023-02-26T15:18:36.994Z,46.50
2023-02-26T15:21:10.304Z,46.70
2023-02-26T15:23:43.593Z,47.00
2023-02-26T15:26:21.302Z,47.10
2023-02-26T15:28:49.482Z,46.30
2023-02-26T15:31:20.081Z,46.30
2023-02-26T15:33:50.812Z,46.50
2023-02-26T15:36:22.087Z,46.40
2023-02-26T15:38:54.464Z,46.00
2023-02-26T15:41:23.730Z,46.20
2023-02-26T15:44:13.979Z,46.50
2023-02-26T15:46:45.909Z,45.90
2023-02-26T15:49:29.277Z,46.10
2023-02-26T15:51:58.424Z,46.30
2023-02-26T15:54:33.361Z,45.50
2023-02-26T15:57:02.345Z,45.90
2023-02-26T15:59:32.565Z,45.10
2023-02-26T16:02:02.925Z,45.50
2023-02-26T16:04:30.076Z,45.30
2023-02-26T16:06:58.293Z,44.30
2023-02-26T16:09:29.862Z,44.30
2023-02-26T16:12:01.075Z,44.50
2023-02-26T16:14:34.593Z,45.00
2023-02-26T16:17:04.558Z,45.10
2023-02-26T16:19:44.822Z,45.40
2023-02-26T16:22:50.270Z,45.90
2023-02-26T16:25:26.637Z,47.10
2023-02-26T16:28:01.053Z,47.60
2023-02-26T16:30:36.006Z,48.10
2023-02-26T16:33:05.305Z,48.40
2023-02-26T16:35:37.270Z,48.70
2023-02-26T16:38:26.763Z,49.10
2023-02-26T16:41:10.998Z,49.20
2023-02-26T16:43:49.983Z,49.00
2023-02-26T16:46:22.982Z,49.40
2023-02-26T16:48:56.288Z,49.20
2023-02-26T16:51:26.089Z,49.40
2023-02-26T16:54:07.723Z,49.50
2023-02-26T16:56:39.816Z,49.40
2023-02-26T16:59:23.854Z,48.90
2023-02-26T17:01:59.034Z,49.20
2023-02-26T17:04:34.822Z,49.20
2023-02-26T17:07:05.736Z,49.40
2023-02-26T17:09:49.220Z,49.20
2023-02-26T17:12:28.642Z,49.30
2023-02-26T17:14:58.873Z,49.40
2023-02-26T17:17:26.751Z,49.40
2023-02-26T17:19:53.874Z,49.50
2023-02-26T17:22:27.070Z,49.60
2023-02-26T17:24:54.485Z,49.60
2023-02-26T17:27:30.756Z,49.60
2023-02-26T17:29:58.611Z,49.60
2023-02-26T17:32:28.027Z,49.50
2023-02-26T17:34:55.246Z,49.60
2023-02-26T17:37:23.531Z,49.40
2023-02-26T17:39:51.324Z,49.50
2023-02-26T17:42:21.548Z,49.40
2023-02-26T17:44:53.037Z,49.60
2023-02-26T17:47:22.705Z,49.80
2023-02-26T17:49:50.358Z,49.70
2023-02-26T17:52:17.784Z,49.80
2023-02-26T17:54:45.029Z,50.00
2023-02-26T17:57:17.468Z,50.30
2023-02-26T17:59:44.813Z,50.40
2023-02-26T18:02:22.969Z,50.80
2023-02-26T18:04:50.155Z,50.60
2023-02-26T18:07:18.539Z,51.00
2023-02-26T18:09:49.301Z,51.30
2023-02-26T18:12:18.768Z,51.40
2023-02-26T18:14:46.248Z,51.30
2023-02-26T18:17:16.112Z,51.50
2023-02-26T18:19:43.395Z,52.00
2023-02-26T18:22:14.671Z,52.00
2023-02-26T18:24:42.594Z,52.20
2023-02-26T18:27:19.461Z,53.00
2023-02-26T18:29:47.225Z,53.30
2023-02-26T18:32:20.472Z,53.10
2023-02-26T18:34:50.438Z,53.20
2023-02-26T18:37:24.097Z,53.50
2023-02-26T18:39:51.414Z,53.50
2023-02-26T18:42:21.245Z,53.70
2023-02-26T18:44:49.727Z,54.60
2023-02-26T18:47:18.888Z,54.30
2023-02-26T18:49:48.442Z,54.30
2023-02-26T18:52:16.407Z,55.10
2023-02-26T18:54:44.241Z,54.60
2023-02-26T18:57:11.542Z,55.20
2023-02-26T18:59:38.724Z,55.80
2023-02-26T19:02:07.274Z,55.20
2023-02-26T19:04:34.592Z,55.40
2023-02-26T19:07:02.202Z,55.50
2023-02-26T19:09:29.678Z,56.00
2023-02-26T19:11:57.585Z,55.70
2023-02-26T19:14:25.447Z,56.00
2023-02-26T19:16:53.087Z,55.70
2023-02-26T19:19:20.473Z,55.80
2023-02-26T19:21:51.497Z,56.00
2023-02-26T19:24:21.495Z,55.60
2023-02-26T19:26:49.185Z,55.60
2023-02-26T19:29:18.602Z,56.10
2023-02-26T19:31:46.775Z,56.70
2023-02-26T19:34:14.786Z,56.80
2023-02-26T19:36:48.157Z,56.70
2023-02-26T19:39:16.890Z,57.60
2023-02-26T19:41:45.840Z,57.70
2023-02-26T19:44:13.032Z,57.50
2023-02-26T19:46:41.981Z,57.10
2023-02-26T19:49:12.546Z,57.70
2023-02-26T19:51:40.137Z,57.50
2023-02-26T19:54:08.062Z,57.40
2023-02-26T19:56:36.456Z,57.90
2023-02-26T19:59:03.683Z,57.60
2023-02-26T20:01:31.151Z,58.00
2023-02-26T20:03:58.489Z,58.00
2023-02-26T20:06:25.708Z,57.80
2023-02-26T20:08:53.252Z,57.70
2023-02-26T20:11:20.839Z,58.10
2023-02-26T20:13:48.104Z,58.50
2023-02-26T20:16:25.961Z,58.00
2023-02-26T20:18:54.670Z,58.50
2023-02-26T20:21:23.406Z,58.40
2023-02-26T20:23:50.718Z,58.50
2023-02-26T20:26:17.960Z,58.80
2023-02-26T20:28:45.234Z,59.00
2023-02-26T20:31:12.713Z,59.10
2023-02-26T20:33:40.048Z,59.30
2023-02-26T20:36:08.651Z,59.70
2023-02-26T20:38:35.912Z,59.60
2023-02-26T20:41:03.803Z,60.20
2023-02-26T20:43:31.223Z,60.40
2023-02-26T20:45:58.720Z,60.60
2023-02-26T20:48:26.593Z,60.10
2023-02-26T20:50:59.518Z,60.50
2023-02-26T20:53:27.056Z,60.40
2023-02-26T20:55:57.410Z,60.30
2023-02-26T20:58:25.158Z,59.60
2023-02-26T21:00:55.802Z,59.90
2023-02-26T21:03:26.346Z,60.30
2023-02-26T21:05:53.863Z,60.60
2023-02-26T21:08:21.796Z,60.50
2023-02-26T21:10:52.660Z,60.50
2023-02-26T21:13:20.016Z,60.70
2023-02-26T21:15:49.515Z,60.90
2023-02-26T21:18:16.795Z,60.50
2023-02-26T21:20:43.996Z,60.50
2023-02-26T21:23:11.125Z,60.70
2023-02-26T21:25:39.665Z,60.80
2023-02-26T21:28:07.024Z,60.70
2023-02-26T21:30:34.274Z,60.70
2023-02-26T21:33:01.466Z,60.80
2023-02-26T21:35:28.584Z,61.10
2023-02-26T21:37:55.780Z,61.40
2023-02-26T21:40:23.116Z,60.30
2023-02-26T21:42:50.388Z,60.40
2023-02-26T21:45:17.752Z,60.20
2023-02-26T21:47:44.915Z,60.10
2023-02-26T21:50:12.150Z,60.70
2023-02-26T21:52:39.486Z,60.70
2023-02-26T21:55:07.228Z,60.60
2023-02-26T21:57:34.410Z,60.60
2023-02-26T22:00:01.557Z,60.50
2023-02-26T22:02:30.673Z,60.90
2023-02-26T22:04:58.296Z,60.80
2023-02-26T22:07:25.832Z,61.00
2023-02-26T22:09:52.971Z,60.80
2023-02-26T22:12:20.121Z,61.20
2023-02-26T22:14:49.180Z,61.10
2023-02-26T22:17:16.309Z,61.50
2023-02-26T22:19:43.552Z,61.50
2023-02-26T22:22:10.701Z,61.70
2023-02-26T22:24:37.842Z,61.50
2023-02-26T22:27:04.998Z,61.50
2023-02-26T22:29:32.220Z,61.50
2023-02-26T22:31:59.601Z,61.80
2023-02-26T22:34:27.549Z,61.50
2023-02-26T22:36:55.027Z,62.00
2023-02-26T22:39:22.139Z,62.30
2023-02-26T22:41:49.413Z,62.60
2023-02-26T22:44:16.624Z,62.50
2023-02-26T22:46:44.054Z,62.30
2023-02-26T22:49:11.225Z,62.10
2023-02-26T22:51:38.689Z,62.10
2023-02-26T22:54:05.948Z,62.40
2023-02-26T22:56:35.739Z,62.80
2023-02-26T22:59:03.125Z,62.80
2023-02-26T23:01:30.400Z,62.70
2023-02-26T23:04:00.566Z,62.80
2023-02-26T23:06:27.672Z,62.80
2023-02-26T23:08:54.773Z,62.40
2023-02-26T23:11:22.003Z,62.70
2023-02-26T23:13:49.190Z,62.80
2023-02-26T23:16:16.309Z,62.60
2023-02-26T23:18:45.721Z,62.80
2023-02-26T23:21:12.788Z,62.80
2023-02-26T23:23:40.538Z,63.00
2023-02-26T23:26:08.014Z,62.80
2023-02-26T23:28:35.148Z,62.70
2023-02-26T23:31:02.469Z,62.60
2023-02-26T23:33:29.672Z,62.60
2023-02-26T23:35:59.027Z,62.70
2023-02-26T23:38:26.291Z,63.00
2023-02-26T23:40:53.459Z,64.00
2023-02-26T23:43:22.743Z,63.50
2023-02-26T23:45:49.863Z,64.10
2023-02-26T23:48:17.072Z,63.40
2023-02-26T23:50:44.357Z,62.90
2023-02-26T23:53:23.591Z,62.90
2023-02-26T23:55:56.936Z,62.60
2023-02-26T23:58:28.836Z,62.50
